createdAt,value
2023-05-19T04:31:09.088Z,21.1
2023-05-19T04:36:15.866Z,21.1
2023-05-19T04:41:18.993Z,21.1
2023-05-19T04:46:21.176Z,21.1
2023-05-19T04:51:26.382Z,21.1
2023-05-19T04:56:28.540Z,21
2023-05-19T05:01:35.461Z,20.9
2023-05-19T05:06:37.535Z,20.8
2023-05-19T05:11:39.810Z,20.7
2023-05-19T05:16:43.691Z,20.7
2023-05-19T05:21:45.803Z,20.7
2023-05-19T05:26:48.082Z,20.8
2023-05-19T05:31:51.146Z,20.8
2023-05-19T05:36:53.279Z,20.8
2023-05-19T05:41:55.509Z,20.8
2023-05-19T05:46:57.701Z,20.8
2023-05-19T05:52:06.025Z,20.8
2023-05-19T05:57:07.778Z,20.8
2023-05-19T06:07:18.499Z,20.7
2023-05-19T06:12:20.488Z,20.7
2023-05-19T06:17:23.469Z,20.7
2023-05-19T06:22:28.088Z,20.7
2023-05-19T06:27:30.597Z,20.7
2023-05-19T06:32:33.153Z,20.8
2023-05-19T06:37:36.248Z,20.8
2023-05-19T06:42:38.375Z,20.8
2023-05-19T06:47:41.269Z,20.8
2023-05-19T06:52:43.582Z,20.8
2023-05-19T06:57:45.826Z,20.7
2023-05-19T07:02:51.241Z,20.7
2023-05-19T07:07:53.350Z,20.6
2023-05-19T07:12:57.709Z,20.6
2023-05-19T07:18:00.775Z,20.6
2023-05-19T07:23:02.946Z,20.7
2023-05-19T07:28:06.550Z,20.7
2023-05-19T07:33:09.541Z,20.7
2023-05-19T07:38:11.813Z,20.7
2023-05-19T07:43:18.628Z,20.7
2023-05-19T07:53:33.923Z,20.7
2023-05-19T07:58:39.221Z,20.7
2023-05-19T08:03:41.403Z,20.8
2023-05-19T08:08:44.327Z,20.8
2023-05-19T08:13:46.555Z,20.8
2023-05-19T08:18:48.725Z,20.9
2023-05-19T08:23:50.892Z,21
2023-05-19T08:28:53.118Z,21
2023-05-19T08:33:59.892Z,21
2023-05-19T08:39:05.338Z,21
2023-05-19T08:44:08.344Z,21
2023-05-19T08:49:15.218Z,20.9
2023-05-19T08:54:22.268Z,20.8
2023-05-19T09:04:33.544Z,20.7
2023-05-19T09:09:36.833Z,20.6
2023-05-19T09:14:39.048Z,20.6
2023-05-19T09:19:41.986Z,20.6
2023-05-19T09:24:44.255Z,20.6
2023-05-19T09:29:46.352Z,20.6
2023-05-19T09:34:53.364Z,20.6
2023-05-19T09:39:56.460Z,20.6
2023-05-19T09:45:03.236Z,20.6
2023-05-19T09:50:05.376Z,20.6
2023-05-19T09:55:08.329Z,20.7
2023-05-19T10:00:12.695Z,20.7
2023-05-19T10:05:15.765Z,20.8
2023-05-19T10:10:18.107Z,20.9
2023-05-19T10:15:22.144Z,20.9
2023-05-19T10:20:22.353Z,20.9
2023-05-19T10:25:24.519Z,20.8
2023-05-19T10:30:26.629Z,20.8
2023-05-19T10:35:28.757Z,20.8
2023-05-19T10:40:33.373Z,20.8
2023-05-19T10:45:35.919Z,20.8
2023-05-19T10:50:38.047Z,20.8
2023-05-19T10:55:40.416Z,20.9
2023-05-19T11:00:42.626Z,20.9
2023-05-19T11:05:44.930Z,20.9
2023-05-19T11:10:47.992Z,20.9
2023-05-19T11:15:50.097Z,20.9
2023-05-19T11:20:52.989Z,20.8
2023-05-19T11:25:55.996Z,20.8
2023-05-19T11:31:01.232Z,20.9
2023-05-19T11:36:04.139Z,20.9
2023-05-19T11:41:06.418Z,20.9
2023-05-19T11:46:09.399Z,20.9
2023-05-19T11:51:12.344Z,21
2023-05-19T11:56:15.485Z,21
2023-05-19T12:01:17.724Z,21
2023-05-19T12:06:20.030Z,21.1
2023-05-19T12:11:23.689Z,21.1
2023-05-19T12:16:27.384Z,21.1
2023-05-19T12:21:33.767Z,21.2
2023-05-19T12:26:31.723Z,21.2
2023-05-19T12:36:42.996Z,21.2
2023-05-19T12:41:45.166Z,21.3
2023-05-19T12:46:47.336Z,21.3
2023-05-19T12:51:54.436Z,21.4
2023-05-19T12:56:57.485Z,21.4
2023-05-19T13:01:59.676Z,21.5
2023-05-19T13:07:01.789Z,21.6
2023-05-19T13:12:08.698Z,21.6
2023-05-19T13:17:13.230Z,21.7
2023-05-19T13:22:15.448Z,21.7
2023-05-19T13:27:18.442Z,21.7
2023-05-19T13:32:21.313Z,21.8
2023-05-19T13:37:23.457Z,21.8
2023-05-19T13:42:30.283Z,21.8
2023-05-19T13:47:33.258Z,21.8
2023-05-19T13:52:35.345Z,21.9
2023-05-19T13:57:37.578Z,21.9
2023-05-19T14:02:39.978Z,22
2023-05-19T14:07:41.765Z,22
2023-05-19T14:12:58.520Z,22.1
2023-05-19T14:22:56.529Z,22.2
2023-05-19T14:27:59.618Z,22.2
2023-05-19T14:33:01.777Z,22.3
2023-05-19T14:38:04.007Z,22.4
2023-05-19T14:43:06.346Z,22.4
2023-05-19T14:48:09.469Z,22.5
2023-05-19T14:53:11.712Z,22.6
2023-05-19T14:58:27.291Z,22.6
2023-05-19T15:03:16.958Z,22.7
2023-05-19T15:08:19.117Z,22.7
2023-05-19T15:13:21.565Z,22.8
2023-05-19T15:18:23.741Z,22.8
2023-05-19T15:23:30.569Z,22.9
2023-05-19T15:28:33.509Z,22.9
2023-05-19T15:33:35.616Z,23
2023-05-19T15:38:38.530Z,23.1
2023-05-19T15:43:41.644Z,23.1
2023-05-19T15:48:47.701Z,23.2
2023-05-19T15:53:49.965Z,23.2
2023-05-19T15:58:55.349Z,23.2
2023-05-19T16:04:02.368Z,23.3
2023-05-19T16:09:05.125Z,23.3
2023-05-19T16:14:08.527Z,23.3
2023-05-19T16:19:10.381Z,23.3
2023-05-19T16:24:12.508Z,23.3
2023-05-19T16:29:15.438Z,23.3
2023-05-19T16:34:19.275Z,23.3
2023-05-19T16:39:21.477Z,23.3
2023-05-19T16:44:24.556Z,23.3
2023-05-19T16:49:26.708Z,23.3
2023-05-19T16:54:28.885Z,23.3
2023-05-19T16:59:31.084Z,23.3
2023-05-19T17:09:41.656Z,23.2
2023-05-19T17:14:43.949Z,23.1
2023-05-19T17:19:47.679Z,23.1
2023-05-19T17:24:50.580Z,23.1
2023-05-19T17:29:53.503Z,23
2023-05-19T17:34:56.377Z,23
2023-05-19T17:40:00.238Z,23
2023-05-19T17:45:02.463Z,23
2023-05-19T17:50:04.521Z,23
2023-05-19T17:55:06.782Z,23.1
2023-05-19T18:00:09.063Z,23.1
2023-05-19T18:05:11.199Z,23.2
2023-05-19T18:10:13.363Z,23.2
2023-05-19T18:15:18.873Z,23.2
2023-05-19T18:20:21.006Z,23.2
2023-05-19T18:25:23.221Z,23.2
2023-05-19T18:30:27.778Z,23.1
2023-05-19T18:35:33.086Z,23.1
2023-05-19T18:40:37.587Z,23.1
2023-05-19T18:45:41.165Z,23.1
2023-05-19T18:50:43.753Z,23.1
2023-05-19T18:55:49.608Z,23.2
2023-05-19T19:00:52.920Z,23.4
2023-05-19T19:05:55.843Z,23.6
2023-05-19T19:16:06.203Z,23.8
2023-05-19T19:21:08.367Z,23.8
2023-05-19T19:31:23.333Z,23.8
2023-05-19T19:36:25.418Z,23.8
2023-05-19T19:41:27.660Z,23.8
2023-05-19T19:46:29.857Z,23.7
2023-05-19T19:51:32.816Z,23.6
2023-05-19T19:56:35.077Z,23.5
2023-05-19T20:01:37.394Z,23.3
2023-05-19T20:06:39.589Z,23.2
2023-05-19T20:11:42.487Z,23.1
2023-05-19T20:16:45.532Z,22.9
2023-05-19T20:21:49.181Z,22.8
2023-05-19T20:26:51.330Z,22.8
2023-05-19T20:31:55.542Z,22.8
2023-05-19T20:36:58.725Z,22.7
2023-05-19T20:42:03.266Z,22.7
2023-05-19T20:47:06.389Z,22.7
2023-05-19T20:52:09.271Z,22.7
2023-05-19T20:57:13.808Z,22.7
2023-05-19T21:02:18.301Z,22.6
2023-05-19T21:07:22.066Z,22.6
2023-05-19T21:12:25.028Z,22.6
2023-05-19T21:17:27.276Z,22.6
2023-05-19T21:22:30.206Z,22.6
2023-05-19T21:27:32.360Z,22.6
2023-05-19T21:32:34.691Z,22.6
2023-05-19T21:37:36.788Z,22.5
2023-05-19T21:42:39.783Z,22.5
2023-05-19T21:47:42.735Z,22.5
2023-05-19T21:52:44.846Z,22.5
2023-05-19T21:57:47.071Z,22.5
2023-05-19T22:02:49.328Z,22.5
2023-05-19T22:07:51.481Z,22.5
2023-05-19T22:12:53.737Z,22.5
2023-05-19T22:17:56.067Z,22.5
2023-05-19T22:23:00.380Z,22.5
2023-05-19T22:28:03.315Z,22.5
2023-05-19T22:33:05.504Z,22.5
2023-05-19T22:38:10.256Z,22.5
2023-05-19T22:43:10.644Z,22.6
2023-05-19T22:48:13.711Z,22.6
2023-05-19T22:53:17.320Z,22.7
2023-05-19T22:58:19.461Z,22.7
2023-05-19T23:03:21.617Z,22.8
2023-05-19T23:08:27.048Z,22.8
2023-05-19T23:13:29.162Z,22.8
